Observation data for Andrews on 12/09/2018      Previous  Date  Next       Current Mesonet Observations  Soil Data  Daily Summary Page  Observations in Plain Language
KANS 090600Z 05003KT M01/M02 A303 RMK A01 T10091020  RH  093%=      5-min Rain = 0
KANS 090605Z 05003KT M01/M02 A303 RMK A01 T10091020  RH  093%=      5-min Rain = 0
KANS 090610Z 05003KT M01/M02 A303 RMK A01 T10091020  RH  093%=      5-min Rain = 0
KANS 090615Z 04003KT M01/M02 A303 RMK A01 T10101021  RH  093%=      5-min Rain = 0
KANS 090620Z 04002KT M01/M02 A303 RMK A01 T10101021  RH  093%=      5-min Rain = 0
KANS 090625Z 04003KT M01/M02 A303 RMK A01 T10101020  RH  094%=      5-min Rain = 0
KANS 090630Z 03002KT M01/M02 A303 RMK A01 T10101021  RH  093%=      5-min Rain = 0
KANS 090635Z 02001KT M01/M02 A303 RMK A01 T10111022  RH  093%=      5-min Rain = 0
KANS 090640Z 02002KT M01/M02 A303 RMK A01 T10121023  RH  093%=      5-min Rain = 0
KANS 090645Z 01002KT M01/M02 A3029 RMK A01 T10131023  RH  094%=      5-min Rain = 0
KANS 090650Z 02002KT M01/M02 A3029 RMK A01 T10131024  RH  094%=      5-min Rain = 0
KANS 090655Z 03002KT M01/M02 A3029 RMK A01 T10141024  RH  094%=      5-min Rain = 0
KANS 090700Z 02002KT M01/M02 A3029 RMK A01 T10141024  RH  094%=      5-min Rain = 0
KANS 090705Z 01001KT M01/M03 A3029 RMK A01 T10141025  RH  094%=      5-min Rain = 0
KANS 090710Z 00002KT M02/M03 A3029 RMK A01 T10151025  RH  094%=      5-min Rain = 0
KANS 090715Z 35002KT M02/M03 A3029 RMK A01 T10151025  RH  094%=      5-min Rain = 0
KANS 090720Z 00002KT M02/M03 A3029 RMK A01 T10151025  RH  094%=      5-min Rain = 0
KANS 090725Z 01002KT M02/M03 A3028 RMK A01 T10151025  RH  094%=      5-min Rain = 0
KANS 090730Z 01003KT M02/M03 A3028 RMK A01 T10151025  RH  094%=      5-min Rain = 0
KANS 090735Z 01003KT M02/M03 A3028 RMK A01 T10161025  RH  094%=      5-min Rain = 0
KANS 090740Z 01003KT M02/M03 A3028 RMK A01 T10161026  RH  094%=      5-min Rain = 0
KANS 090745Z 02004KT M02/M03 A3028 RMK A01 T10171027  RH  094%=      5-min Rain = 0
KANS 090750Z 02003KT M02/M03 A3028 RMK A01 T10181028  RH  094%=      5-min Rain = 0
KANS 090755Z 01002KT M02/M03 A3028 RMK A01 T10181028  RH  094%=      5-min Rain = 0
KANS 090800Z 01002KT M02/M03 A3028 RMK A01 T10181027  RH  094%=      5-min Rain = 0
KANS 090805Z 36002KT M02/M03 A3028 RMK A01 T10171026  RH  095%=      5-min Rain = 0
KANS 090810Z 33002KT M02/M03 A3028 RMK A01 T10171026  RH  095%=      5-min Rain = 0
KANS 090815Z 33002KT M02/M03 A3028 RMK A01 T10161025  RH  095%=      5-min Rain = 0
KANS 090820Z 34002KT M02/M03 A3028 RMK A01 T10171026  RH  095%=      5-min Rain = 0
KANS 090825Z 33002KT M02/M03 A3028 RMK A01 T10161026  RH  095%=      5-min Rain = 0
KANS 090830Z 32002KT M02/M03 A3028 RMK A01 T10171026  RH  094%=      5-min Rain = 0
KANS 090835Z 33002KT M02/M03 A3028 RMK A01 T10161025  RH  095%=      5-min Rain = 0
KANS 090840Z 36003KT M01/M02 A3028 RMK A01 T10141023  RH  095%=      5-min Rain = 0
KANS 090845Z 00003KT M02/M03 A3027 RMK A01 T10151025  RH  094%=      5-min Rain = 0
KANS 090850Z 35003KT M02/M03 A3028 RMK A01 T10181027  RH  094%=      5-min Rain = 0
KANS 090855Z 34004KT M02/M03 A3028 RMK A01 T10181027  RH  095%=      5-min Rain = 0
KANS 090900Z 33004KT M02/M02 A3028 RMK A01 T10161024  RH  095%=      5-min Rain = 0
KANS 090905Z 32004KT M01/M02 A3028 RMK A01 T10141023  RH  095%=      5-min Rain = 0
KANS 090910Z 32004KT M01/M02 A3028 RMK A01 T10131022  RH  095%=      5-min Rain = 0
KANS 090915Z 32004KT M01/M02 A3028 RMK A01 T10131022  RH  095%=      5-min Rain = 0
KANS 090920Z 32004KT M01/M02 A3028 RMK A01 T10141023  RH  095%=      5-min Rain = 0
KANS 090925Z 30003KT M01/M02 A3028 RMK A01 T10141023  RH  095%=      5-min Rain = 0
KANS 090930Z 31003KT M01/M02 A3028 RMK A01 T10131022  RH  095%=      5-min Rain = 0
KANS 090935Z 31004KT M01/M02 A3028 RMK A01 T10131022  RH  095%=      5-min Rain = 0
KANS 090940Z 32003KT M01/M02 A3028 RMK A01 T10131022  RH  095%=      5-min Rain = 0
KANS 090945Z 31003KT M01/M02 A3028 RMK A01 T10141023  RH  095%=      5-min Rain = 0
KANS 090950Z 31003KT M02/M02 A3028 RMK A01 T10151024  RH  095%=      5-min Rain = 0
KANS 090955Z 30003KT M02/M02 A3028 RMK A01 T10151024  RH  095%=      5-min Rain = 0
KANS 091000Z 30003KT M02/M03 A3028 RMK A01 T10161025  RH  095%=      5-min Rain = 0
KANS 091005Z 30004KT M02/M03 A3028 RMK A01 T10171026  RH  095%=      5-min Rain = 0
KANS 091010Z 29003KT M02/M03 A3028 RMK A01 T10171026  RH  095%=      5-min Rain = 0
KANS 091015Z 28003KT M02/M03 A3028 RMK A01 T10181027  RH  095%=      5-min Rain = 0
KANS 091020Z 28003KT M02/M03 A3029 RMK A01 T10201029  RH  094%=      5-min Rain = 0
KANS 091025Z 28004KT M02/M03 A3029 RMK A01 T10211030  RH  095%=      5-min Rain = 0
KANS 091030Z 29004KT M02/M03 A3029 RMK A01 T10201029  RH  095%=      5-min Rain = 0
KANS 091035Z 29004KT M02/M03 A3029 RMK A01 T10181026  RH  095%=      5-min Rain = 0
KANS 091040Z 29003KT M02/M03 A3029 RMK A01 T10171026  RH  095%=      5-min Rain = 0
KANS 091045Z 29004KT M02/M03 A3029 RMK A01 T10171026  RH  095%=      5-min Rain = 0
KANS 091050Z 29003KT M02/M03 A3029 RMK A01 T10181027  RH  095%=      5-min Rain = 0
KANS 091055Z 30002KT M02/M03 A3029 RMK A01 T10181027  RH  095%=      5-min Rain = 0
KANS 091100Z 30003KT M02/M03 A3029 RMK A01 T10191028  RH  095%=      5-min Rain = 0
KANS 091105Z 30003KT M02/M03 A3029 RMK A01 T10191028  RH  095%=      5-min Rain = 0
KANS 091110Z 29004KT M02/M03 A3029 RMK A01 T10201028  RH  095%=      5-min Rain = 0
KANS 091115Z 30005KT M02/M03 A3029 RMK A01 T10191028  RH  095%=      5-min Rain = 0
KANS 091120Z 31004KT M02/M03 A3029 RMK A01 T10181026  RH  095%=      5-min Rain = 0
KANS 091125Z 31004KT M02/M03 A3029 RMK A01 T10171026  RH  095%=      5-min Rain = 0
KANS 091130Z 30004KT M02/M03 A3029 RMK A01 T10181027  RH  095%=      5-min Rain = 0
KANS 091135Z 30003KT M02/M03 A3029 RMK A01 T10191028  RH  095%=      5-min Rain = 0
KANS 091140Z 31003KT M02/M03 A303 RMK A01 T10191028  RH  095%=      5-min Rain = 0
KANS 091145Z 31003KT M02/M03 A303 RMK A01 T10191028  RH  095%=      5-min Rain = 0
KANS 091150Z 31002KT M02/M03 A303 RMK A01 T10191028  RH  095%=      5-min Rain = 0
KANS 091155Z 32002KT M02/M03 A303 RMK A01 T10201029  RH  095%=      5-min Rain = 0
KANS 091200Z 32003KT M02/M03 A303 RMK A01 T10211030  RH  095%=      5-min Rain = 0
KANS 091205Z 33004KT M02/M03 A3031 RMK A01 T10211030  RH  095%=      5-min Rain = 0
KANS 091210Z 33004KT M02/M03 A3031 RMK A01 T10221031  RH  095%=      5-min Rain = 0
KANS 091215Z 33004KT M02/M03 A3031 RMK A01 T10231032  RH  095%=      5-min Rain = 0
KANS 091220Z 34004KT M02/M03 A3031 RMK A01 T10241032  RH  095%=      5-min Rain = 0
KANS 091225Z 34004KT M02/M03 A3031 RMK A01 T10241032  RH  095%=      5-min Rain = 0
KANS 091230Z 34005KT M02/M03 A3031 RMK A01 T10241033  RH  095%=      5-min Rain = 0
KANS 091235Z 33004KT M03/M03 A3032 RMK A01 T10251034  RH  095%=      5-min Rain = 0
KANS 091240Z 34004KT M03/M03 A3032 RMK A01 T10251034  RH  095%=      5-min Rain = 0
KANS 091245Z 33004KT M03/M03 A3032 RMK A01 T10251034  RH  095%=      5-min Rain = 0
KANS 091250Z 34005KT M03/M03 A3033 RMK A01 T10251034  RH  095%=      5-min Rain = 0
KANS 091255Z 35005KT M03/M04 A3033 RMK A01 T10261035  RH  095%=      5-min Rain = 0
KANS 091300Z 35005KT M03/M04 A3033 RMK A01 T10271036  RH  095%=      5-min Rain = 0
KANS 091305Z 34004KT M03/M04 A3033 RMK A01 T10271036  RH  095%=      5-min Rain = 0
KANS 091310Z 33004KT M03/M04 A3033 RMK A01 T10261035  RH  095%=      5-min Rain = 0
KANS 091315Z 32004KT M03/M03 A3034 RMK A01 T10251033  RH  095%=      5-min Rain = 0
KANS 091320Z 32005KT M02/M03 A3034 RMK A01 T10231031  RH  095%=      5-min Rain = 0
KANS 091325Z 32005KT M02/M03 A3034 RMK A01 T10231032  RH  095%=      5-min Rain = 0
KANS 091330Z 32005KT M02/M03 A3035 RMK A01 T10241033  RH  095%=      5-min Rain = 0
KANS 091335Z 33005KT M02/M03 A3035 RMK A01 T10241032  RH  095%=      5-min Rain = 0
KANS 091340Z 33005KT M02/M03 A3035 RMK A01 T10231032  RH  095%=      5-min Rain = 0
KANS 091345Z 33004KT M02/M03 A3035 RMK A01 T10221031  RH  095%=      5-min Rain = 0
KANS 091350Z 33004KT M02/M03 A3035 RMK A01 T10211030  RH  095%=      5-min Rain = 0
KANS 091355Z 32004KT M02/M03 A3035 RMK A01 T10191028  RH  095%=      5-min Rain = 0
KANS 091400Z 33004KT M02/M03 A3035 RMK A01 T10171026  RH  095%=      5-min Rain = 0
KANS 091405Z 33004KT M02/M02 A3035 RMK A01 T10161024  RH  095%=      5-min Rain = 0
KANS 091410Z 34004KT M01/M02 A3035 RMK A01 T10141023  RH  095%=      5-min Rain = 0
KANS 091415Z 33003KT M01/M02 A3036 RMK A01 T10121021  RH  095%=      5-min Rain = 0
KANS 091420Z 33003KT M01/M02 A3036 RMK A01 T10111020  RH  095%=      5-min Rain = 0
KANS 091425Z 34003KT M01/M02 A3036 RMK A01 T10101019  RH  095%=      5-min Rain = 0
KANS 091430Z 34003KT M01/M02 A3036 RMK A01 T10081017  RH  095%=      5-min Rain = 0
KANS 091435Z 34003KT M01/M02 A3037 RMK A01 T10071016  RH  095%=      5-min Rain = 0
KANS 091440Z 33003KT M01/M01 A3037 RMK A01 T10051014  RH  095%=      5-min Rain = 0
KANS 091445Z 33004KT M00/M01 A3037 RMK A01 T10041013  RH  094%=      5-min Rain = 0
KANS 091450Z 33003KT M00/M01 A3037 RMK A01 T10031012  RH  094%=      5-min Rain = 0
KANS 091455Z 34003KT M00/M01 A3038 RMK A01 T10011011  RH  094%=      5-min Rain = 0
KANS 091500Z 35003KT M00/M01 A3038 RMK A01 T10011011  RH  094%=      5-min Rain = 0
KANS 091505Z 35003KT 00/01 A3038 RMK A01 T00-00-10  RH  094%=      5-min Rain = 0
KANS 091510Z 36003KT 00/M01 A3038 RMK A01 T00011010  RH  094%=      5-min Rain = 0
KANS 091515Z 00004KT 00/M01 A3038 RMK A01 T00011009  RH  094%=      5-min Rain = 0
KANS 091520Z 01003KT 00/M01 A3038 RMK A01 T00031008  RH  094%=      5-min Rain = 0
KANS 091525Z 01004KT 00/M01 A3038 RMK A01 T00041006  RH  094%=      5-min Rain = 0
KANS 091530Z 01004KT 01/M01 A3039 RMK A01 T00061005  RH  093%=      5-min Rain = 0
KANS 091535Z 00004KT 01/M00 A3039 RMK A01 T00091003  RH  093%=      5-min Rain = 0
KANS 091540Z 01004KT 01/M00 A3039 RMK A01 T00111001  RH  092%=      5-min Rain = 0
KANS 091545Z 01004KT 01/00 A304 RMK A01 T00140000  RH  092%=      5-min Rain = 0
KANS 091550Z 36004KT 02/00 A304 RMK A01 T00150001  RH  091%=      5-min Rain = 0
KANS 091555Z 00005KT 02/00 A304 RMK A01 T00160001  RH  091%=      5-min Rain = 0
KANS 091600Z 00005KT 02/00 A304 RMK A01 T00170000  RH  090%=      5-min Rain = 0
KANS 091605Z 01004KT 02/00 A304 RMK A01 T00190001  RH  089%=      5-min Rain = 0
KANS 091610Z 01004KT 02/00 A304 RMK A01 T00200002  RH  089%=      5-min Rain = 0
KANS 091615Z 01004KT 02/00 A304 RMK A01 T00220002  RH  088%=      5-min Rain = 0
KANS 091620Z 01004KT 02/00 A304 RMK A01 T00220001  RH  087%=      5-min Rain = 0
KANS 091625Z 01003KT 02/00 A304 RMK A01 T00240002  RH  087%=      5-min Rain = 0
KANS 091630Z 01003KT 03/00 A304 RMK A01 T00250001  RH  085%=      5-min Rain = 0
KANS 091635Z 02004KT 03/00 A304 RMK A01 T00260000  RH  084%=      5-min Rain = 0
KANS 091640Z 03004KT 03/M00 A304 RMK A01 T00271002  RH  083%=      5-min Rain = 0
KANS 091645Z 02003KT 03/00 A304 RMK A01 T00290000  RH  082%=      5-min Rain = 0
KANS 091650Z 02002KT 03/M00 A304 RMK A01 T00291002  RH  081%=      5-min Rain = 0
KANS 091655Z 02003KT 03/M00 A304 RMK A01 T00301003  RH  080%=      5-min Rain = 0
KANS 091700Z 03003KT 03/M00 A304 RMK A01 T00301003  RH  080%=      5-min Rain = 0
KANS 091705Z 04003KT 03/M01 A304 RMK A01 T00291006  RH  079%=      5-min Rain = 0
KANS 091710Z 02002KT 03/M00 A304 RMK A01 T00311002  RH  080%=      5-min Rain = 0
KANS 091715Z 04002KT 03/M01 A304 RMK A01 T00301006  RH  078%=      5-min Rain = 0
KANS 091720Z 04002KT 03/M00 A304 RMK A01 T00311004  RH  078%=      5-min Rain = 0
KANS 091725Z 06001KT 03/M01 A304 RMK A01 T00301008  RH  077%=      5-min Rain = 0
KANS 091730Z 04001KT 03/M01 A304 RMK A01 T00321006  RH  077%=      5-min Rain = 0
KANS 091735Z 11001KT 03/M01 A304 RMK A01 T00321009  RH  075%=      5-min Rain = 0
KANS 091740Z 08002KT 03/M01 A304 RMK A01 T00331011  RH  074%=      5-min Rain = 0
KANS 091745Z 06001KT 03/M02 A304 RMK A01 T00331016  RH  071%=      5-min Rain = 0
KANS 091750Z 08001KT 03/M02 A304 RMK A01 T00341015  RH  071%=      5-min Rain = 0
KANS 091755Z 07001KT 04/M01 A304 RMK A01 T00361014  RH  071%=      5-min Rain = 0
KANS 091800Z 05000KT 04/M02 A304 RMK A01 T00381016  RH  069%=      5-min Rain = 0
KANS 091805Z 22000KT 04/M01 A3039 RMK A01 T00421013  RH  068%=      5-min Rain = 0
KANS 091810Z 22000KT 04/M01 A3039 RMK A01 T00441014  RH  067%=      5-min Rain = 0
KANS 091815Z 24001KT 05/M01 A3039 RMK A01 T00451014  RH  067%=      5-min Rain = 0
KANS 091820Z 31002KT 05/M01 A3039 RMK A01 T00461012  RH  067%=      5-min Rain = 0
KANS 091825Z 31003KT 05/M01 A3038 RMK A01 T00471012  RH  066%=      5-min Rain = 0
KANS 091830Z 29002KT 05/M01 A3038 RMK A01 T00471014  RH  066%=      5-min Rain = 0
KANS 091835Z 11001KT 05/M01 A3038 RMK A01 T00491012  RH  065%=      5-min Rain = 0
KANS 091840Z 35001KT 06/M01 A3037 RMK A01 T00561009  RH  064%=      5-min Rain = 0
KANS 091845Z 27004KT 06/M01 A3037 RMK A01 T00561012  RH  062%=      5-min Rain = 0
KANS 091850Z 25003KT 05/M01 A3037 RMK A01 T00521013  RH  064%=      5-min Rain = 0
KANS 091855Z 27002KT 05/M01 A3036 RMK A01 T00541010  RH  064%=      5-min Rain = 0
KANS 091900Z 28002KT 06/M01 A3036 RMK A01 T00621006  RH  063%=      5-min Rain = 0
KANS 091905Z 32003KT 06/M01 A3036 RMK A01 T00611009  RH  061%=      5-min Rain = 0
KANS 091910Z 27004KT 06/M01 A3036 RMK A01 T00621008  RH  062%=      5-min Rain = 0
KANS 091915Z 28005KT 06/M01 A3036 RMK A01 T00631007  RH  062%=      5-min Rain = 0
KANS 091920Z 31003KT 06/M01 A3035 RMK A01 T00631007  RH  062%=      5-min Rain = 0
KANS 091925Z 30003KT 07/M01 A3035 RMK A01 T00651005  RH  062%=      5-min Rain = 0
KANS 091930Z 30004KT 07/M00 A3035 RMK A01 T00701003  RH  060%=      5-min Rain = 0
KANS 091935Z 29005KT 07/M01 A3035 RMK A01 T00701005  RH  060%=      5-min Rain = 0
KANS 091940Z 29004KT 07/M01 A3035 RMK A01 T00701005  RH  060%=      5-min Rain = 0
KANS 091945Z 28003KT 07/M00 A3035 RMK A01 T00731004  RH  059%=      5-min Rain = 0
KANS 091950Z 30004KT 07/M00 A3035 RMK A01 T00731004  RH  059%=      5-min Rain = 0
KANS 091955Z 29005KT 08/M00 A3035 RMK A01 T00751001  RH  059%=      5-min Rain = 0
KANS 092000Z 28003G8KT 08/M00 A3035 RMK A01 T00761001  RH  059%=      5-min Rain = 0
KANS 092005Z 28004KT 07/M00 A3035 RMK A01 T00741002  RH  059%=      5-min Rain = 0
KANS 092010Z 33004KT 08/00 A3034 RMK A01 T00760002  RH  060%=      5-min Rain = 0
KANS 092015Z 33003KT 08/00 A3034 RMK A01 T00770004  RH  060%=      5-min Rain = 0
KANS 092020Z 30004KT 08/01 A3034 RMK A01 T00800007  RH  060%=      5-min Rain = 0
KANS 092025Z 28004KT 08/01 A3034 RMK A01 T00810005  RH  059%=      5-min Rain = 0
KANS 092030Z 30004KT 08/01 A3034 RMK A01 T00800005  RH  060%=      5-min Rain = 0
KANS 092035Z 32002KT 08/00 A3033 RMK A01 T00790003  RH  059%=      5-min Rain = 0
KANS 092040Z 27002KT 08/00 A3033 RMK A01 T00810002  RH  058%=      5-min Rain = 0
KANS 092045Z 27003KT 08/00 A3033 RMK A01 T00810004  RH  059%=      5-min Rain = 0
KANS 092050Z 29003KT 08/00 A3033 RMK A01 T00800001  RH  058%=      5-min Rain = 0
KANS 092055Z 28004KT 08/00 A3033 RMK A01 T00810004  RH  059%=      5-min Rain = 0
KANS 092100Z 25002KT 08/00 A3033 RMK A01 T00820003  RH  058%=      5-min Rain = 0
KANS 092105Z 31005KT 09/01 A3033 RMK A01 T00850006  RH  058%=      5-min Rain = 0
KANS 092110Z 33003KT 08/00 A3033 RMK A01 T00820004  RH  059%=      5-min Rain = 0
KANS 092115Z 31004KT 08/01 A3033 RMK A01 T00840006  RH  059%=      5-min Rain = 0
KANS 092120Z 34004KT 08/00 A3033 RMK A01 T00840004  RH  058%=      5-min Rain = 0
KANS 092125Z 33002KT 08/00 A3033 RMK A01 T00840002  RH  057%=      5-min Rain = 0
KANS 092130Z 30004KT 09/01 A3033 RMK A01 T00850006  RH  058%=      5-min Rain = 0
KANS 092135Z 30003KT 08/01 A3033 RMK A01 T00840005  RH  058%=      5-min Rain = 0
KANS 092140Z 29003KT 08/00 A3033 RMK A01 T00810002  RH  058%=      5-min Rain = 0
KANS 092145Z 30003KT 08/01 A3033 RMK A01 T00810005  RH  059%=      5-min Rain = 0
KANS 092150Z 34003KT 08/00 A3033 RMK A01 T00810003  RH  058%=      5-min Rain = 0
KANS 092155Z 35002KT 08/00 A3033 RMK A01 T00810003  RH  059%=      5-min Rain = 0
KANS 092200Z 01003KT 08/00 A3033 RMK A01 T00820004  RH  058%=      5-min Rain = 0
KANS 092205Z 04001KT 08/00 A3033 RMK A01 T00840002  RH  057%=      5-min Rain = 0
KANS 092210Z 34002KT 09/00 A3033 RMK A01 T00870004  RH  056%=      5-min Rain = 0
KANS 092215Z 33003KT 08/00 A3033 RMK A01 T00840002  RH  057%=      5-min Rain = 0
KANS 092220Z 33003KT 08/00 A3033 RMK A01 T00840004  RH  058%=      5-min Rain = 0
KANS 092225Z 33003KT 08/00 A3033 RMK A01 T00840003  RH  057%=      5-min Rain = 0
KANS 092230Z 32003KT 08/00 A3033 RMK A01 T00830003  RH  058%=      5-min Rain = 0
KANS 092235Z 29003KT 08/00 A3033 RMK A01 T00830004  RH  058%=      5-min Rain = 0
KANS 092240Z 27002KT 08/00 A3034 RMK A01 T00830004  RH  058%=      5-min Rain = 0
KANS 092245Z 24001KT 08/01 A3034 RMK A01 T00830006  RH  059%=      5-min Rain = 0
KANS 092250Z 33002KT 09/01 A3034 RMK A01 T00850006  RH  058%=      5-min Rain = 0
KANS 092255Z 31001KT 08/01 A3034 RMK A01 T00830006  RH  059%=      5-min Rain = 0
KANS 092300Z 33003KT 08/01 A3034 RMK A01 T00820006  RH  059%=      5-min Rain = 0
KANS 092305Z 33003KT 08/01 A3034 RMK A01 T00790006  RH  061%=      5-min Rain = 0
KANS 092310Z 33003KT 08/01 A3034 RMK A01 T00790007  RH  061%=      5-min Rain = 0
KANS 092315Z 34003KT 08/01 A3033 RMK A01 T00770005  RH  061%=      5-min Rain = 0
KANS 092320Z 35003KT 08/01 A3033 RMK A01 T00750005  RH  062%=      5-min Rain = 0
KANS 092325Z 34004KT 07/00 A3033 RMK A01 T00720004  RH  063%=      5-min Rain = 0
KANS 092330Z 34003KT 07/00 A3033 RMK A01 T00690004  RH  064%=      5-min Rain = 0
KANS 092335Z 35002KT 07/00 A3033 RMK A01 T00670004  RH  065%=      5-min Rain = 0
KANS 092340Z 36002KT 07/00 A3033 RMK A01 T00650003  RH  065%=      5-min Rain = 0
KANS 092345Z 36002KT 06/00 A3034 RMK A01 T00630003  RH  066%=      5-min Rain = 0
KANS 092350Z 36003KT 06/00 A3034 RMK A01 T00610003  RH  067%=      5-min Rain = 0
KANS 092355Z 00004KT 06/00 A3034 RMK A01 T00570003  RH  069%=      5-min Rain = 0
KANS 100000Z 00004KT 05/00 A3034 RMK A01 T00540002  RH  070%=      5-min Rain = 0
KANS 100005Z 01004KT 05/00 A3034 RMK A01 T00520002  RH  071%=      5-min Rain = 0
KANS 100010Z 01004KT 05/00 A3034 RMK A01 T00500001  RH  071%=      5-min Rain = 0
KANS 100015Z 01005KT 05/00 A3034 RMK A01 T00480001  RH  072%=      5-min Rain = 0
KANS 100020Z 02005KT 05/00 A3035 RMK A01 T00460001  RH  073%=      5-min Rain = 0
KANS 100025Z 01005KT 04/00 A3035 RMK A01 T00440000  RH  074%=      5-min Rain = 0
KANS 100030Z 02005KT 04/M00 A3035 RMK A01 T00411001  RH  075%=      5-min Rain = 0
KANS 100035Z 02005KT 04/00 A3035 RMK A01 T003900-0  RH  076%=      5-min Rain = 0
KANS 100040Z 02004KT 04/M00 A3035 RMK A01 T00381001  RH  077%=      5-min Rain = 0
KANS 100045Z 01003KT 04/00 A3035 RMK A01 T003800-0  RH  077%=      5-min Rain = 0
KANS 100050Z 01003KT 04/00 A3035 RMK A01 T00380000  RH  077%=      5-min Rain = 0
KANS 100055Z 01003KT 04/00 A3035 RMK A01 T00390000  RH  077%=      5-min Rain = 0
KANS 100100Z 00003KT 04/00 A3035 RMK A01 T00390000  RH  077%=      5-min Rain = 0
KANS 100105Z 01002KT 04/00 A3035 RMK A01 T00400000  RH  076%=      5-min Rain = 0
KANS 100110Z 01003KT 04/00 A3035 RMK A01 T00400000  RH  076%=      5-min Rain = 0
KANS 100115Z 02002KT 04/00 A3035 RMK A01 T00400000  RH  076%=      5-min Rain = 0
KANS 100120Z 02002KT 04/00 A3035 RMK A01 T00400001  RH  077%=      5-min Rain = 0
KANS 100125Z 02002KT 04/00 A3035 RMK A01 T00400000  RH  076%=      5-min Rain = 0
KANS 100130Z 02001KT 04/M00 A3035 RMK A01 T00371002  RH  077%=      5-min Rain = 0
KANS 100135Z 02001KT 04/M00 A3035 RMK A01 T00351002  RH  078%=      5-min Rain = 0
KANS 100140Z 03002KT 03/M00 A3036 RMK A01 T00341002  RH  079%=      5-min Rain = 0
KANS 100145Z 03002KT 04/00 A3036 RMK A01 T003500-0  RH  079%=      5-min Rain = 0
KANS 100150Z 02002KT 03/M00 A3036 RMK A01 T00321004  RH  078%=      5-min Rain = 0
KANS 100155Z 02002KT 03/M01 A3036 RMK A01 T00281005  RH  080%=      5-min Rain = 0
KANS 100200Z 01002KT 03/M01 A3037 RMK A01 T00251006  RH  081%=      5-min Rain = 0
KANS 100205Z 00002KT 02/M01 A3037 RMK A01 T00221007  RH  082%=      5-min Rain = 0
KANS 100210Z 00003KT 02/M00 A3037 RMK A01 T00221004  RH  084%=      5-min Rain = 0
KANS 100215Z 00002KT 02/M00 A3037 RMK A01 T00241001  RH  084%=      5-min Rain = 0
KANS 100220Z 00003KT 03/M00 A3037 RMK A01 T00251001  RH  084%=      5-min Rain = 0
KANS 100225Z 01003KT 03/00 A3038 RMK A01 T002700-0  RH  083%=      5-min Rain = 0
KANS 100230Z 01003KT 03/00 A3038 RMK A01 T00290001  RH  083%=      5-min Rain = 0
KANS 100235Z 03005KT 03/M00 A3038 RMK A01 T00291001  RH  082%=      5-min Rain = 0
KANS 100240Z 04006KT 02/M01 A3038 RMK A01 T00241006  RH  082%=      5-min Rain = 0
KANS 100245Z 04007KT 02/M01 A3038 RMK A01 T00201007  RH  083%=      5-min Rain = 0
KANS 100250Z 04005KT 02/M01 A3039 RMK A01 T00181008  RH  084%=      5-min Rain = 0
KANS 100255Z 05004KT 02/M01 A3038 RMK A01 T00171009  RH  084%=      5-min Rain = 0
KANS 100300Z 05003KT 02/M01 A3038 RMK A01 T00161009  RH  084%=      5-min Rain = 0
KANS 100305Z 06002KT 02/M01 A3038 RMK A01 T00161009  RH  084%=      5-min Rain = 0
KANS 100310Z 07002KT 02/M01 A3038 RMK A01 T00151011  RH  084%=      5-min Rain = 0
KANS 100315Z 11001KT 01/M01 A3037 RMK A01 T00121013  RH  084%=      5-min Rain = 0
KANS 100320Z 21002KT 01/M02 A3037 RMK A01 T00081017  RH  084%=      5-min Rain = 0
KANS 100325Z 18003KT 01/M02 A3037 RMK A01 T00061017  RH  086%=      5-min Rain = 0
KANS 100330Z 20003KT 01/M02 A3037 RMK A01 T00051016  RH  087%=      5-min Rain = 0
KANS 100335Z 21003KT 01/M01 A3037 RMK A01 T00061014  RH  088%=      5-min Rain = 0
KANS 100340Z 21001KT 01/M01 A3037 RMK A01 T00071013  RH  088%=      5-min Rain = 0
KANS 100345Z 00000KT 01/M01 A3037 RMK A01 T00071011  RH  088%=      5-min Rain = 0
KANS 100350Z 33000KT 01/M01 A3038 RMK A01 T00081010  RH  089%=      5-min Rain = 0
KANS 100355Z 01003KT 01/M01 A3038 RMK A01 T00051014  RH  088%=      5-min Rain = 0
KANS 100400Z 00004KT 00/M02 A3039 RMK A01 T00021016  RH  089%=      5-min Rain = 0
KANS 100405Z 36003KT 00/M02 A3039 RMK A01 T00011017  RH  089%=      5-min Rain = 0
KANS 100410Z 35005KT 00/02 A3039 RMK A01 T00000-17  RH  089%=      5-min Rain = 0
KANS 100415Z 34004KT M00/M02 A3039 RMK A01 T10011018  RH  089%=      5-min Rain = 0
KANS 100420Z 33005KT M00/M02 A3039 RMK A01 T10031019  RH  090%=      5-min Rain = 0
KANS 100425Z 33005KT M00/M02 A304 RMK A01 T10021017  RH  090%=      5-min Rain = 0
KANS 100430Z 34005KT M00/M02 A304 RMK A01 T10031018  RH  090%=      5-min Rain = 0
KANS 100435Z 34006KT M01/M02 A304 RMK A01 T10051021  RH  090%=      5-min Rain = 0
KANS 100440Z 34006KT M01/M02 A304 RMK A01 T10061021  RH  091%=      5-min Rain = 0
KANS 100445Z 34006KT M01/M02 A304 RMK A01 T10061020  RH  091%=      5-min Rain = 0
KANS 100450Z 34006KT M01/M02 A304 RMK A01 T10061020  RH  091%=      5-min Rain = 0
KANS 100455Z 33005KT M00/M02 A304 RMK A01 T10041018  RH  092%=      5-min Rain = 0
KANS 100500Z 33006KT M00/M02 A304 RMK A01 T10011015  RH  092%=      5-min Rain = 0
KANS 100505Z 33006KT M00/M02 A304 RMK A01 T10011015  RH  091%=      5-min Rain = 0
KANS 100510Z 33006KT M00/M02 A304 RMK A01 T10011016  RH  091%=      5-min Rain = 0
KANS 100515Z 32007KT M00/M02 A304 RMK A01 T10011015  RH  091%=      5-min Rain = 0
KANS 100520Z 32007KT 00/01 A304 RMK A01 T00000-14  RH  091%=      5-min Rain = 0
KANS 100525Z 31006KT 00/M01 A304 RMK A01 T00021012  RH  091%=      5-min Rain = 0
KANS 100530Z 32006KT 00/M01 A304 RMK A01 T00041011  RH  091%=      5-min Rain = 0
KANS 100535Z 32006KT 00/M01 A304 RMK A01 T00041012  RH  090%=      5-min Rain = 0
KANS 100540Z 31005KT 00/M01 A3039 RMK A01 T00041013  RH  090%=      5-min Rain = 0
KANS 100545Z 31005KT 00/M01 A3039 RMK A01 T00041013  RH  089%=      5-min Rain = 0
KANS 100550Z 30004KT 00/M01 A3039 RMK A01 T00041014  RH  089%=      5-min Rain = 0
KANS 100555Z 30004KT 00/M02 A3039 RMK A01 T00031015  RH  089%=      5-min Rain = 0

Page generated in 0.009 seconds.